APL Indonesia — V2EC7 — position and weather

sailwx.info

Track history (hours):
 
Tides and Currents Weather Stations Pressure Air Temp Water Temp Dewpoint Dewpoint Depression Visibility Wind Speed Wind Dir Waves Ship Positions

APL Indonesia

Last reported at 2015-Jan-20 01:32 UTC. Time now 2015-Feb-01 10:17 UTC.
Position N 25°44' W 079°45'.
Warning: this ship's position is 12 days out of date.

Length 261 m; draft 8.4 m.

Type: Ship (hazmat cat D). MMSI: 305386000.

Date/timePositionNaut miles runAvg speedWind from/ knotsBaromVisibWave heightAir tempDewpointWater temp
2015-Jan-20 01:32N 25°44' W 079°45'1212.0
2015-Jan-20 00:33N 25°45' W 079°58'10 9.8
2015-Jan-19 23:33N 25°46' W 080°08'1 0.7
2015-Jan-19 22:18N 25°46' W 080°09'0 0.0
2015-Jan-19 21:33N 25°46' W 080°09'0 0.0
2015-Jan-19 20:21N 25°46' W 080°09'0 0.0
2015-Jan-19 19:12N 25°46' W 080°09'0 0.0
2015-Jan-19 15:24N 25°46' W 080°09'0 0.0
2015-Jan-19 14:15N 25°46' W 080°09'0 0.0
2015-Jan-19 13:12N 25°46' W 080°09'0 0.0
2015-Jan-19 12:33N 25°46' W 080°09'0 0.4
2015-Jan-19 11:33N 25°46' W 080°10'5 4.7
2015-Jan-19 10:34N 25°46' W 080°05'6 5.5
2015-Jan-19 09:33N 25°49' W 079°59'7 6.7
2015-Jan-19 08:33N 25°55' W 079°56'8 8.1
2015-Jan-19 07:33N 26°02' W 079°52'9 8.6
2015-Jan-19 06:33N 26°11' W 079°52'8 8.5
2015-Jan-19 05:34N 26°19' W 079°52'9 8.6
2015-Jan-19 04:33N 26°28' W 079°52'9 8.5
2015-Jan-19 03:33N 26°36' W 079°52'8 8.4
2015-Jan-19 02:33N 26°45' W 079°52'9 8.5
2015-Jan-19 01:34N 26°53' W 079°52'8 8.4
2015-Jan-19 00:33N 27°02' W 079°52'9 9.1
2015-Jan-18 23:34N 27°11' W 079°52'  
2015-Jan-16 04:33N 34°43' W 075°40'  
2015-Jan-13 10:10N 39°28' W 073°53'1012.0
2015-Jan-13 09:18N 39°39' W 073°52'1012.0
2015-Jan-13 08:27N 39°49' W 073°52'3610.9
2015-Jan-13 05:09N 40°25' W 073°49'6 9.5
2015-Jan-13 04:33N 40°29' W 073°54'1010.0
2015-Jan-13 03:33N 40°37' W 074°03'5 5.3
2015-Jan-13 02:33N 40°40' W 074°09'1 0.8
2015-Jan-13 01:32N 40°40' W 074°08'0 0.0
2015-Jan-13 00:14N 40°40' W 074°08'0 0.0
2015-Jan-12 23:26N 40°40' W 074°08'0 0.0
2015-Jan-12 22:32N 40°40' W 074°08'0 0.0
2015-Jan-12 21:32N 40°40' W 074°08'0 0.0
2015-Jan-12 20:32N 40°40' W 074°08'0 0.0
2015-Jan-12 19:32N 40°40' W 074°08'0 0.0
2015-Jan-12 18:32N 40°40' W 074°08'0 0.0
2015-Jan-12 17:32N 40°40' W 074°08'0 0.0
2015-Jan-12 16:32N 40°40' W 074°08'0 0.0
2015-Jan-12 15:32N 40°40' W 074°08'0 0.0
2015-Jan-12 14:32N 40°40' W 074°08'0 0.0
2015-Jan-12 13:26N 40°40' W 074°08'0 0.0
2015-Jan-12 12:32N 40°40' W 074°08'0 0.0
2015-Jan-12 11:32N 40°40' W 074°08'3 3.2
2015-Jan-12 10:33N 40°39' W 074°05'1212.1
2015-Jan-12 09:33N 40°29' W 073°55'9 9.0
2015-Jan-12 08:33N 40°23' W 073°46'10 9.8
2015-Jan-12 07:34N 40°14' W 073°45'1211.3
2015-Jan-12 06:30N 40°02' W 073°43'1111.7
2015-Jan-12 05:33N 39°51' W 073°40'1212.0
2015-Jan-12 04:34N 39°39' W 073°40'1815.6
2015-Jan-12 03:25N 39°21' W 073°40'1718.3
2015-Jan-12 02:30N 39°05' W 073°43'1718.2
2015-Jan-12 01:33N 38°48' W 073°47'1817.9
2015-Jan-12 00:32N 38°30' W 073°52'  
Track history (hours):
 
Tides and Currents Weather Stations Pressure Air Temp Water Temp Dewpoint Dewpoint Depression Visibility Wind Speed Wind Dir Waves Ship Positions

APL Indonesia

Last reported at 2015-Jan-20 01:32 UTC. Time now 2015-Feb-01 10:17 UTC.
Position N 25°44' W 079°45'.
Warning: this ship's position is 12 days out of date.

Length 261 m; draft 8.4 m.

Type: Ship (hazmat cat D). MMSI: 305386000.

Date/timePositionNaut miles runAvg speedWind from/ knotsBaromVisibWave heightAir tempDewpointWater temp
2015-Jan-20 01:32N 25°44' W 079°45'1212.0
2015-Jan-20 00:33N 25°45' W 079°58'10 9.8
2015-Jan-19 23:33N 25°46' W 080°08'1 0.7
2015-Jan-19 22:18N 25°46' W 080°09'0 0.0
2015-Jan-19 21:33N 25°46' W 080°09'0 0.0
2015-Jan-19 20:21N 25°46' W 080°09'0 0.0
2015-Jan-19 19:12N 25°46' W 080°09'0 0.0
2015-Jan-19 15:24N 25°46' W 080°09'0 0.0
2015-Jan-19 14:15N 25°46' W 080°09'0 0.0
2015-Jan-19 13:12N 25°46' W 080°09'0 0.0
2015-Jan-19 12:33N 25°46' W 080°09'0 0.4
2015-Jan-19 11:33N 25°46' W 080°10'5 4.7
2015-Jan-19 10:34N 25°46' W 080°05'6 5.5
2015-Jan-19 09:33N 25°49' W 079°59'7 6.7
2015-Jan-19 08:33N 25°55' W 079°56'8 8.1
2015-Jan-19 07:33N 26°02' W 079°52'9 8.6
2015-Jan-19 06:33N 26°11' W 079°52'8 8.5
2015-Jan-19 05:34N 26°19' W 079°52'9 8.6
2015-Jan-19 04:33N 26°28' W 079°52'9 8.5
2015-Jan-19 03:33N 26°36' W 079°52'8 8.4
2015-Jan-19 02:33N 26°45' W 079°52'9 8.5
2015-Jan-19 01:34N 26°53' W 079°52'8 8.4
2015-Jan-19 00:33N 27°02' W 079°52'9 9.1
2015-Jan-18 23:34N 27°11' W 079°52'  
2015-Jan-16 04:33N 34°43' W 075°40'  
2015-Jan-13 10:10N 39°28' W 073°53'1012.0
2015-Jan-13 09:18N 39°39' W 073°52'1012.0
2015-Jan-13 08:27N 39°49' W 073°52'3610.9
2015-Jan-13 05:09N 40°25' W 073°49'6 9.5
2015-Jan-13 04:33N 40°29' W 073°54'1010.0
2015-Jan-13 03:33N 40°37' W 074°03'5 5.3
2015-Jan-13 02:33N 40°40' W 074°09'1 0.8
2015-Jan-13 01:32N 40°40' W 074°08'0 0.0
2015-Jan-13 00:14N 40°40' W 074°08'0 0.0
2015-Jan-12 23:26N 40°40' W 074°08'0 0.0
2015-Jan-12 22:32N 40°40' W 074°08'0 0.0
2015-Jan-12 21:32N 40°40' W 074°08'0 0.0
2015-Jan-12 20:32N 40°40' W 074°08'0 0.0
2015-Jan-12 19:32N 40°40' W 074°08'0 0.0
2015-Jan-12 18:32N 40°40' W 074°08'0 0.0
2015-Jan-12 17:32N 40°40' W 074°08'0 0.0
2015-Jan-12 16:32N 40°40' W 074°08'0 0.0
2015-Jan-12 15:32N 40°40' W 074°08'0 0.0
2015-Jan-12 14:32N 40°40' W 074°08'0 0.0
2015-Jan-12 13:26N 40°40' W 074°08'0 0.0
2015-Jan-12 12:32N 40°40' W 074°08'0 0.0
2015-Jan-12 11:32N 40°40' W 074°08'3 3.2
2015-Jan-12 10:33N 40°39' W 074°05'1212.1
2015-Jan-12 09:33N 40°29' W 073°55'9 9.0
2015-Jan-12 08:33N 40°23' W 073°46'10 9.8
2015-Jan-12 07:34N 40°14' W 073°45'1211.3
2015-Jan-12 06:30N 40°02' W 073°43'1111.7
2015-Jan-12 05:33N 39°51' W 073°40'1212.0
2015-Jan-12 04:34N 39°39' W 073°40'1815.6
2015-Jan-12 03:25N 39°21' W 073°40'1718.3
2015-Jan-12 02:30N 39°05' W 073°43'1718.2
2015-Jan-12 01:33N 38°48' W 073°47'1817.9
2015-Jan-12 00:32N 38°30' W 073°52'  

Dump ship's entire track history